sensor_id;sensor_type;location;lat;lon;timestamp;pressure;altitude;pressure_sealevel;temperature
19568;BMP280;9930;49.240;8.548;2023-05-31T00:00:08;100857.59;;;22.13
19568;BMP280;9930;49.240;8.548;2023-05-31T00:02:37;100860.22;;;22.08
19568;BMP280;9930;49.240;8.548;2023-05-31T00:05:03;100861.06;;;22.12
19568;BMP280;9930;49.240;8.548;2023-05-31T00:07:28;100851.56;;;22.03
19568;BMP280;9930;49.240;8.548;2023-05-31T00:09:54;100838.56;;;21.97
19568;BMP280;9930;49.240;8.548;2023-05-31T00:12:22;100855.88;;;22.01
19568;BMP280;9930;49.240;8.548;2023-05-31T00:14:52;100840.31;;;21.95
19568;BMP280;9930;49.240;8.548;2023-05-31T00:17:18;100855.03;;;21.97
19568;BMP280;9930;49.240;8.548;2023-05-31T00:19:46;100848.09;;;21.92
19568;BMP280;9930;49.240;8.548;2023-05-31T00:22:13;100843.78;;;21.88
19568;BMP280;9930;49.240;8.548;2023-05-31T00:24:43;100837.72;;;21.86
19568;BMP280;9930;49.240;8.548;2023-05-31T00:27:09;100844.63;;;21.90
19568;BMP280;9930;49.240;8.548;2023-05-31T00:29:37;100838.59;;;21.79
19568;BMP280;9930;49.240;8.548;2023-05-31T00:32:07;100844.66;;;21.84
19568;BMP280;9930;49.240;8.548;2023-05-31T00:34:33;100848.97;;;21.83
19568;BMP280;9930;49.240;8.548;2023-05-31T00:36:58;100847.25;;;21.79
19568;BMP280;9930;49.240;8.548;2023-05-31T00:39:24;100836.00;;;21.73
19568;BMP280;9930;49.240;8.548;2023-05-31T00:41:53;100830.81;;;21.70
19568;BMP280;9930;49.240;8.548;2023-05-31T00:44:20;100848.13;;;21.74
19568;BMP280;9930;49.240;8.548;2023-05-31T00:46:46;100861.13;;;21.71
19568;BMP280;9930;49.240;8.548;2023-05-31T00:49:15;100843.81;;;21.60
19568;BMP280;9930;49.240;8.548;2023-05-31T00:51:41;100843.81;;;21.60
19568;BMP280;9930;49.240;8.548;2023-05-31T00:54:08;100865.44;;;21.59
19568;BMP280;9930;49.240;8.548;2023-05-31T00:56:36;100858.53;;;21.58
19568;BMP280;9930;49.240;8.548;2023-05-31T00:59:02;100857.66;;;21.56
19568;BMP280;9930;49.240;8.548;2023-05-31T01:01:28;100862.84;;;21.58
19568;BMP280;9930;49.240;8.548;2023-05-31T01:03:59;100862.84;;;21.58
19568;BMP280;9930;49.240;8.548;2023-05-31T01:06:25;100859.38;;;21.56
19568;BMP280;9930;49.240;8.548;2023-05-31T01:08:54;100855.06;;;21.56
19568;BMP280;9930;49.240;8.548;2023-05-31T01:20:56;100854.19;;;21.38
19568;BMP280;9930;49.240;8.548;2023-05-31T01:26:40;100858.53;;;21.32
19568;BMP280;9930;49.240;8.548;2023-05-31T01:29:13;100847.28;;;21.24
19568;BMP280;9930;49.240;8.548;2023-05-31T01:31:48;100859.38;;;21.27
19568;BMP280;9930;49.240;8.548;2023-05-31T01:34:23;100862.84;;;21.26
19568;BMP280;9930;49.240;8.548;2023-05-31T01:36:51;100865.44;;;21.24
19568;BMP280;9930;49.240;8.548;2023-05-31T01:39:24;100862.84;;;21.23
19568;BMP280;9930;49.240;8.548;2023-05-31T01:41:53;100856.72;;;21.15
19568;BMP280;9930;49.240;8.548;2023-05-31T01:44:20;100874.03;;;21.19
19568;BMP280;9930;49.240;8.548;2023-05-31T01:46:49;100876.63;;;21.17
19568;BMP280;9930;49.240;8.548;2023-05-31T01:49:18;100865.38;;;21.09
19568;BMP280;9930;49.240;8.548;2023-05-31T01:51:50;100878.34;;;21.14
19568;BMP280;9930;49.240;8.548;2023-05-31T01:54:21;100867.97;;;21.12
19568;BMP280;9930;49.240;8.548;2023-05-31T01:56:47;100857.59;;;21.06
19568;BMP280;9930;49.240;8.548;2023-05-31T01:59:16;100868.84;;;21.13
19568;BMP280;9930;49.240;8.548;2023-05-31T02:01:42;100859.31;;;21.06
19568;BMP280;9930;49.240;8.548;2023-05-31T02:04:10;100873.16;;;21.12
19568;BMP280;9930;49.240;8.548;2023-05-31T02:06:39;100868.84;;;21.10
19568;BMP280;9930;49.240;8.548;2023-05-31T02:09:06;100863.63;;;21.00
19568;BMP280;9930;49.240;8.548;2023-05-31T02:11:34;100864.50;;;20.98
19568;BMP280;9930;49.240;8.548;2023-05-31T02:14:00;100879.19;;;21.02
19568;BMP280;9930;49.240;8.548;2023-05-31T02:16:27;100868.81;;;20.97
19568;BMP280;9930;49.240;8.548;2023-05-31T02:18:56;100876.56;;;20.91
19568;BMP280;9930;49.240;8.548;2023-05-31T02:21:24;100870.53;;;20.94
19568;BMP280;9930;49.240;8.548;2023-05-31T02:23:49;100878.28;;;20.91
19568;BMP280;9930;49.240;8.548;2023-05-31T02:26:22;100877.44;;;20.89
19568;BMP280;9930;49.240;8.548;2023-05-31T02:28:49;100875.69;;;20.86
19568;BMP280;9930;49.240;8.548;2023-05-31T02:31:17;100881.75;;;20.85
19568;BMP280;9930;49.240;8.548;2023-05-31T02:33:50;100878.28;;;20.83
19568;BMP280;9930;49.240;8.548;2023-05-31T02:36:21;100883.47;;;20.82
19568;BMP280;9930;49.240;8.548;2023-05-31T02:38:50;100879.16;;;20.76
19568;BMP280;9930;49.240;8.548;2023-05-31T02:41:16;100881.75;;;20.76
19568;BMP280;9930;49.240;8.548;2023-05-31T02:43:42;100880.88;;;20.76
19568;BMP280;9930;49.240;8.548;2023-05-31T02:46:10;100873.06;;;20.68
19568;BMP280;9930;49.240;8.548;2023-05-31T02:48:38;100885.19;;;20.72
19568;BMP280;9930;49.240;8.548;2023-05-31T02:51:06;100873.94;;;20.64
19568;BMP280;9930;49.240;8.548;2023-05-31T02:53:32;100881.69;;;20.62
19568;BMP280;9930;49.240;8.548;2023-05-31T02:55:57;100892.94;;;20.66
19568;BMP280;9930;49.240;8.548;2023-05-31T02:58:23;100888.59;;;20.62
19568;BMP280;9930;49.240;8.548;2023-05-31T03:00:54;100879.09;;;20.58
19568;BMP280;9930;49.240;8.548;2023-05-31T03:03:22;100889.47;;;20.61
19568;BMP280;9930;49.240;8.548;2023-05-31T03:05:48;100890.31;;;20.58
19568;BMP280;9930;49.240;8.548;2023-05-31T03:08:16;100893.75;;;20.57
19568;BMP280;9930;49.240;8.548;2023-05-31T03:10:42;100879.91;;;20.49
19568;BMP280;9930;49.240;8.548;2023-05-31T03:13:08;100890.28;;;20.54
19568;BMP280;9930;49.240;8.548;2023-05-31T03:15:33;100883.38;;;20.51
19568;BMP280;9930;49.240;8.548;2023-05-31T03:18:01;100877.28;;;20.45
19568;BMP280;9930;49.240;8.548;2023-05-31T03:20:29;100890.28;;;20.49
19568;BMP280;9930;49.240;8.548;2023-05-31T03:22:56;100889.41;;;20.47
19568;BMP280;9930;49.240;8.548;2023-05-31T03:25:21;100897.16;;;20.46
19568;BMP280;9930;49.240;8.548;2023-05-31T03:27:48;100890.22;;;20.42
19568;BMP280;9930;49.240;8.548;2023-05-31T03:30:17;100888.50;;;20.39
19568;BMP280;9930;49.240;8.548;2023-05-31T03:32:43;100906.66;;;20.44
19568;BMP280;9930;49.240;8.548;2023-05-31T03:35:09;100896.22;;;20.37
19568;BMP280;9930;49.240;8.548;2023-05-31T03:37:37;100910.13;;;20.44
19568;BMP280;9930;49.240;8.548;2023-05-31T03:40:02;100891.91;;;20.35
19568;BMP280;9930;49.240;8.548;2023-05-31T03:42:33;100896.22;;;20.37
19568;BMP280;9930;49.240;8.548;2023-05-31T03:44:58;100896.22;;;20.34
19568;BMP280;9930;49.240;8.548;2023-05-31T03:47:24;100906.56;;;20.31
19568;BMP280;9930;49.240;8.548;2023-05-31T03:49:50;100900.50;;;20.31
19568;BMP280;9930;49.240;8.548;2023-05-31T03:52:17;100897.91;;;20.26
19568;BMP280;9930;49.240;8.548;2023-05-31T03:54:43;100908.28;;;20.31
19568;BMP280;9930;49.240;8.548;2023-05-31T03:57:08;100910.88;;;20.32
19568;BMP280;9930;49.240;8.548;2023-05-31T03:59:38;100916.06;;;20.34
19568;BMP280;9930;49.240;8.548;2023-05-31T04:02:04;100915.19;;;20.30
19568;BMP280;9930;49.240;8.548;2023-05-31T04:04:30;100917.81;;;20.35
19568;BMP280;9930;49.240;8.548;2023-05-31T04:06:58;100929.03;;;20.35
19568;BMP280;9930;49.240;8.548;2023-05-31T04:09:24;100915.19;;;20.30
19568;BMP280;9930;49.240;8.548;2023-05-31T04:11:52;100913.47;;;20.29
19568;BMP280;9930;49.240;8.548;2023-05-31T04:14:19;100929.91;;;20.37
19568;BMP280;9930;49.240;8.548;2023-05-31T04:16:49;100923.00;;;20.38
19568;BMP280;9930;49.240;8.548;2023-05-31T04:19:17;100927.38;;;20.41
19568;BMP280;9930;49.240;8.548;2023-05-31T04:21:45;100929.09;;;20.39
19568;BMP280;9930;49.240;8.548;2023-05-31T04:24:12;100922.97;;;20.35
19568;BMP280;9930;49.240;8.548;2023-05-31T04:26:40;100926.44;;;20.35
19568;BMP280;9930;49.240;8.548;2023-05-31T04:29:10;100927.28;;;20.33
19568;BMP280;9930;49.240;8.548;2023-05-31T04:31:36;100929.00;;;20.32
19568;BMP280;9930;49.240;8.548;2023-05-31T04:34:02;100917.75;;;20.26
19568;BMP280;9930;49.240;8.548;2023-05-31T04:36:31;100931.59;;;20.32
19568;BMP280;9930;49.240;8.548;2023-05-31T04:39:01;100929.88;;;20.31
19568;BMP280;9930;49.240;8.548;2023-05-31T04:41:26;100928.13;;;20.27
19568;BMP280;9930;49.240;8.548;2023-05-31T04:44:00;100935.94;;;20.33
19568;BMP280;9930;49.240;8.548;2023-05-31T04:46:28;100931.59;;;20.32
19568;BMP280;9930;49.240;8.548;2023-05-31T04:48:55;100935.97;;;20.38
19568;BMP280;9930;49.240;8.548;2023-05-31T04:51:22;100936.88;;;20.39
19568;BMP280;9930;49.240;8.548;2023-05-31T04:53:48;100936.88;;;20.40
19568;BMP280;9930;49.240;8.548;2023-05-31T04:56:20;100929.03;;;20.35
19568;BMP280;9930;49.240;8.548;2023-05-31T04:58:47;100942.94;;;20.44
19568;BMP280;9930;49.240;8.548;2023-05-31T05:01:13;100925.63;;;20.40
19568;BMP280;9930;49.240;8.548;2023-05-31T05:03:42;100940.38;;;20.48
19568;BMP280;9930;49.240;8.548;2023-05-31T05:06:16;100936.13;;;20.64
19568;BMP280;9930;49.240;8.548;2023-05-31T05:08:43;100939.69;;;20.95
19568;BMP280;9930;49.240;8.548;2023-05-31T05:11:18;100945.03;;;21.39
19568;BMP280;9930;49.240;8.548;2023-05-31T05:13:45;100945.94;;;21.93
19568;BMP280;9930;49.240;8.548;2023-05-31T05:16:19;100939.81;;;22.43
19568;BMP280;9930;49.240;8.548;2023-05-31T05:18:48;100939.66;;;23.01
19568;BMP280;9930;49.240;8.548;2023-05-31T05:21:16;100936.72;;;23.58
19568;BMP280;9930;49.240;8.548;2023-05-31T05:23:45;100935.38;;;24.13
19568;BMP280;9930;49.240;8.548;2023-05-31T05:26:11;100932.28;;;24.62
19568;BMP280;9930;49.240;8.548;2023-05-31T05:28:42;100940.28;;;25.17
19568;BMP280;9930;49.240;8.548;2023-05-31T05:31:09;100941.31;;;25.65
19568;BMP280;9930;49.240;8.548;2023-05-31T05:33:37;100946.72;;;26.05
19568;BMP280;9930;49.240;8.548;2023-05-31T05:36:06;100931.53;;;26.26
19568;BMP280;9930;49.240;8.548;2023-05-31T05:38:31;100924.25;;;26.43
19568;BMP280;9930;49.240;8.548;2023-05-31T05:40:57;100931.53;;;26.70
19568;BMP280;9930;49.240;8.548;2023-05-31T05:43:25;100918.28;;;26.79
19568;BMP280;9930;49.240;8.548;2023-05-31T05:45:53;100930.38;;;26.85
19568;BMP280;9930;49.240;8.548;2023-05-31T05:48:19;100942.38;;;26.95
19568;BMP280;9930;49.240;8.548;2023-05-31T05:50:49;100936.16;;;27.01
19568;BMP280;9930;49.240;8.548;2023-05-31T05:53:16;100937.88;;;27.02
19568;BMP280;9930;49.240;8.548;2023-05-31T05:55:50;100935.38;;;26.97
19568;BMP280;9930;49.240;8.548;2023-05-31T05:58:20;100936.25;;;26.95
19568;BMP280;9930;49.240;8.548;2023-05-31T06:00:48;100933.66;;;26.95
19568;BMP280;9930;49.240;8.548;2023-05-31T06:03:15;100928.81;;;26.76
19568;BMP280;9930;49.240;8.548;2023-05-31T06:05:42;100929.34;;;26.51
19568;BMP280;9930;49.240;8.548;2023-05-31T06:08:10;100942.75;;;26.31
19568;BMP280;9930;49.240;8.548;2023-05-31T06:10:36;100941.38;;;26.11
19568;BMP280;9930;49.240;8.548;2023-05-31T06:13:02;100928.72;;;25.90
19568;BMP280;9930;49.240;8.548;2023-05-31T06:15:33;100923.69;;;25.79
19568;BMP280;9930;49.240;8.548;2023-05-31T06:17:59;100936.69;;;25.83
19568;BMP280;9930;49.240;8.548;2023-05-31T06:20:27;100943.75;;;25.76
19568;BMP280;9930;49.240;8.548;2023-05-31T06:22:55;100944.78;;;25.67
19568;BMP280;9930;49.240;8.548;2023-05-31T06:25:22;100937.09;;;25.55
19568;BMP280;9930;49.240;8.548;2023-05-31T06:27:49;100942.38;;;25.52
19568;BMP280;9930;49.240;8.548;2023-05-31T06:30:18;100945.06;;;25.47
19568;BMP280;9930;49.240;8.548;2023-05-31T06:32:46;100947.84;;;25.37
19568;BMP280;9930;49.240;8.548;2023-05-31T06:35:19;100948.81;;;25.30
19568;BMP280;9930;49.240;8.548;2023-05-31T06:37:46;100934.16;;;25.20
19568;BMP280;9930;49.240;8.548;2023-05-31T06:40:12;100949.84;;;25.18
19568;BMP280;9930;49.240;8.548;2023-05-31T06:42:38;100929.06;;;25.10
19568;BMP280;9930;49.240;8.548;2023-05-31T06:45:04;100942.00;;;25.18
19568;BMP280;9930;49.240;8.548;2023-05-31T06:47:30;100933.19;;;25.25
19568;BMP280;9930;49.240;8.548;2023-05-31T06:49:56;100924.09;;;25.52
19568;BMP280;9930;49.240;8.548;2023-05-31T06:52:23;100935.00;;;25.80
19568;BMP280;9930;49.240;8.548;2023-05-31T06:54:52;100931.16;;;25.99
19568;BMP280;9930;49.240;8.548;2023-05-31T06:57:22;100928.09;;;26.22
19568;BMP280;9930;49.240;8.548;2023-05-31T06:59:49;100939.84;;;26.48
19568;BMP280;9930;49.240;8.548;2023-05-31T07:02:22;100942.19;;;26.61
19568;BMP280;9930;49.240;8.548;2023-05-31T07:04:48;100939.41;;;26.70
19568;BMP280;9930;49.240;8.548;2023-05-31T07:07:16;100928.19;;;26.64
19568;BMP280;9930;49.240;8.548;2023-05-31T07:09:42;100940.50;;;26.59
19568;BMP280;9930;49.240;8.548;2023-05-31T07:12:08;100936.31;;;26.50
19568;BMP280;9930;49.240;8.548;2023-05-31T07:14:33;100931.44;;;26.30
19568;BMP280;9930;49.240;8.548;2023-05-31T07:16:59;100927.28;;;26.20
19568;BMP280;9930;49.240;8.548;2023-05-31T07:19:29;100932.47;;;26.22
19568;BMP280;9930;49.240;8.548;2023-05-31T07:21:59;100920.34;;;26.18
19568;BMP280;9930;49.240;8.548;2023-05-31T07:24:25;100933.16;;;26.33
19568;BMP280;9930;49.240;8.548;2023-05-31T07:26:50;100923.47;;;26.38
19568;BMP280;9930;49.240;8.548;2023-05-31T07:29:21;100917.16;;;26.50
19568;BMP280;9930;49.240;8.548;2023-05-31T07:31:47;100931.63;;;26.67
19568;BMP280;9930;49.240;8.548;2023-05-31T07:34:18;100921.88;;;26.74
19568;BMP280;9930;49.240;8.548;2023-05-31T07:36:47;100921.78;;;26.78
19568;BMP280;9930;49.240;8.548;2023-05-31T07:39:13;100910.31;;;26.84
19568;BMP280;9930;49.240;8.548;2023-05-31T07:41:38;100911.94;;;26.90
19568;BMP280;9930;49.240;8.548;2023-05-31T07:44:09;100911.72;;;27.02
19568;BMP280;9930;49.240;8.548;2023-05-31T07:46:35;100918.44;;;27.14
19568;BMP280;9930;49.240;8.548;2023-05-31T07:49:04;100905.19;;;27.20
19568;BMP280;9930;49.240;8.548;2023-05-31T07:51:33;100912.13;;;27.22
19568;BMP280;9930;49.240;8.548;2023-05-31T07:54:01;100904.28;;;27.21
19568;BMP280;9930;49.240;8.548;2023-05-31T07:56:31;100910.22;;;27.29
19568;BMP280;9930;49.240;8.548;2023-05-31T07:58:56;100915.13;;;27.42
19568;BMP280;9930;49.240;8.548;2023-05-31T08:01:22;100900.38;;;27.38
19568;BMP280;9930;49.240;8.548;2023-05-31T08:03:48;100902.09;;;27.39
19568;BMP280;9930;49.240;8.548;2023-05-31T08:06:20;100898.72;;;27.34
19568;BMP280;9930;49.240;8.548;2023-05-31T08:08:49;100891.84;;;27.30
19568;BMP280;9930;49.240;8.548;2023-05-31T08:11:19;100894.59;;;27.24
19568;BMP280;9930;49.240;8.548;2023-05-31T08:13:47;100895.53;;;27.22
19568;BMP280;9930;49.240;8.548;2023-05-31T08:16:17;100893.59;;;27.30
19568;BMP280;9930;49.240;8.548;2023-05-31T08:18:48;100895.22;;;27.35
19568;BMP280;9930;49.240;8.548;2023-05-31T08:21:16;100883.16;;;27.28
19568;BMP280;9930;49.240;8.548;2023-05-31T08:23:46;100891.75;;;27.33
19568;BMP280;9930;49.240;8.548;2023-05-31T08:26:12;100883.84;;;27.36
19568;BMP280;9930;49.240;8.548;2023-05-31T08:28:37;100884.53;;;27.43
19568;BMP280;9930;49.240;8.548;2023-05-31T08:31:06;100886.13;;;27.50
19568;BMP280;9930;49.240;8.548;2023-05-31T08:33:34;100873.97;;;27.48
19568;BMP280;9930;49.240;8.548;2023-05-31T08:36:04;100886.16;;;27.49
19568;BMP280;9930;49.240;8.548;2023-05-31T08:38:30;100875.78;;;27.44
19568;BMP280;9930;49.240;8.548;2023-05-31T08:41:06;100882.88;;;27.40
19568;BMP280;9930;49.240;8.548;2023-05-31T08:43:33;100875.13;;;27.36
19568;BMP280;9930;49.240;8.548;2023-05-31T08:45:59;100871.78;;;27.29
19568;BMP280;9930;49.240;8.548;2023-05-31T08:48:33;100871.91;;;27.25
19568;BMP280;9930;49.240;8.548;2023-05-31T08:51:02;100864.09;;;27.22
19568;BMP280;9930;49.240;8.548;2023-05-31T08:53:32;100855.34;;;27.23
19568;BMP280;9930;49.240;8.548;2023-05-31T08:56:00;100872.72;;;27.27
19568;BMP280;9930;49.240;8.548;2023-05-31T08:58:29;100858.97;;;27.17
19568;BMP280;9930;49.240;8.548;2023-05-31T09:00:55;100866.97;;;27.11
19568;BMP280;9930;49.240;8.548;2023-05-31T09:03:24;100864.28;;;27.14
19568;BMP280;9930;49.240;8.548;2023-05-31T09:05:49;100852.16;;;27.10
19568;BMP280;9930;49.240;8.548;2023-05-31T09:08:17;100860.75;;;27.17
19568;BMP280;9930;49.240;8.548;2023-05-31T09:10:42;100862.31;;;27.24
19568;BMP280;9930;49.240;8.548;2023-05-31T09:13:08;100854.56;;;27.19
19568;BMP280;9930;49.240;8.548;2023-05-31T09:15:36;100858.72;;;27.28
19568;BMP280;9930;49.240;8.548;2023-05-31T09:18:18;100861.13;;;27.37
19568;BMP280;9930;49.240;8.548;2023-05-31T09:20:50;100857.53;;;27.41
19568;BMP280;9930;49.240;8.548;2023-05-31T09:23:20;100858.34;;;27.43
19568;BMP280;9930;49.240;8.548;2023-05-31T09:25:52;100848.69;;;27.45
19568;BMP280;9930;49.240;8.548;2023-05-31T09:28:22;100830.34;;;27.45
19568;BMP280;9930;49.240;8.548;2023-05-31T09:31:05;100866.63;;;27.62
19568;BMP280;9930;49.240;8.548;2023-05-31T09:33:43;100859.59;;;27.64
19568;BMP280;9930;49.240;8.548;2023-05-31T09:36:11;100848.22;;;27.65
19568;BMP280;9930;49.240;8.548;2023-05-31T09:38:37;100847.25;;;27.69
19568;BMP280;9930;49.240;8.548;2023-05-31T09:41:20;100840.31;;;27.66
19568;BMP280;9930;49.240;8.548;2023-05-31T09:43:50;100837.66;;;27.68
19568;BMP280;9930;49.240;8.548;2023-05-31T09:46:22;100854.97;;;27.73
19568;BMP280;9930;49.240;8.548;2023-05-31T09:49:02;100850.69;;;27.71
19568;BMP280;9930;49.240;8.548;2023-05-31T09:51:32;100845.31;;;27.76
19568;BMP280;9930;49.240;8.548;2023-05-31T09:54:09;100839.94;;;27.80
19568;BMP280;9930;49.240;8.548;2023-05-31T09:56:42;100825.94;;;27.81
19568;BMP280;9930;49.240;8.548;2023-05-31T09:59:09;100847.59;;;27.88
19568;BMP280;9930;49.240;8.548;2023-05-31T10:01:37;100829.22;;;27.89
19568;BMP280;9930;49.240;8.548;2023-05-31T10:04:05;100841.34;;;27.93
19568;BMP280;9930;49.240;8.548;2023-05-31T10:06:33;100837.91;;;27.91
19568;BMP280;9930;49.240;8.548;2023-05-31T10:09:06;100837.91;;;27.91
19568;BMP280;9930;49.240;8.548;2023-05-31T10:11:42;100839.63;;;27.92
19568;BMP280;9930;49.240;8.548;2023-05-31T10:14:30;100857.13;;;27.92
19568;BMP280;9930;49.240;8.548;2023-05-31T10:17:02;100845.63;;;27.96
19568;BMP280;9930;49.240;8.548;2023-05-31T10:19:40;100832.56;;;27.94
19568;BMP280;9930;49.240;8.548;2023-05-31T10:22:07;100819.28;;;28.00
19568;BMP280;9930;49.240;8.548;2023-05-31T10:24:52;100818.44;;;28.00
19568;BMP280;9930;49.240;8.548;2023-05-31T10:27:38;100835.03;;;28.00
19568;BMP280;9930;49.240;8.548;2023-05-31T10:30:06;100835.13;;;27.97
19568;BMP280;9930;49.240;8.548;2023-05-31T10:32:48;100823.09;;;27.89
19568;BMP280;9930;49.240;8.548;2023-05-31T10:35:19;100825.44;;;27.99
19568;BMP280;9930;49.240;8.548;2023-05-31T10:37:49;100816.63;;;28.02
19568;BMP280;9930;49.240;8.548;2023-05-31T10:40:39;100824.28;;;28.10
19568;BMP280;9930;49.240;8.548;2023-05-31T10:43:39;100816.25;;;28.16
19568;BMP280;9930;49.240;8.548;2023-05-31T10:46:22;100813.34;;;28.26
19568;BMP280;9930;49.240;8.548;2023-05-31T10:48:58;100804.38;;;28.33
19568;BMP280;9930;49.240;8.548;2023-05-31T10:51:46;100805.19;;;28.35
19568;BMP280;9930;49.240;8.548;2023-05-31T10:54:29;100812.88;;;28.42
19568;BMP280;9930;49.240;8.548;2023-05-31T10:56:57;100805.72;;;28.47
19568;BMP280;9930;49.240;8.548;2023-05-31T10:59:27;100801.25;;;28.50
19568;BMP280;9930;49.240;8.548;2023-05-31T11:01:55;100813.34;;;28.56
19568;BMP280;9930;49.240;8.548;2023-05-31T11:04:25;100803.03;;;28.50
19568;BMP280;9930;49.240;8.548;2023-05-31T11:07:15;100786.31;;;28.52
19568;BMP280;9930;49.240;8.548;2023-05-31T11:09:57;100814.31;;;28.52
19568;BMP280;9930;49.240;8.548;2023-05-31T11:12:38;100804.69;;;28.52
19568;BMP280;9930;49.240;8.548;2023-05-31T11:15:13;100801.06;;;28.56
19568;BMP280;9930;49.240;8.548;2023-05-31T11:17:50;100794.06;;;28.57
19568;BMP280;9930;49.240;8.548;2023-05-31T11:20:20;100793.63;;;28.70
19568;BMP280;9930;49.240;8.548;2023-05-31T11:22:47;100787.22;;;28.79
19568;BMP280;9930;49.240;8.548;2023-05-31T11:25:22;100783.53;;;28.86
19568;BMP280;9930;49.240;8.548;2023-05-31T11:27:47;100786.16;;;28.86
19568;BMP280;9930;49.240;8.548;2023-05-31T11:30:19;100802.53;;;28.94
19568;BMP280;9930;49.240;8.548;2023-05-31T11:32:56;100782.38;;;28.95
19568;BMP280;9930;49.240;8.548;2023-05-31T11:35:23;100793.69;;;28.97
19568;BMP280;9930;49.240;8.548;2023-05-31T11:38:00;100794.53;;;28.97
19568;BMP280;9930;49.240;8.548;2023-05-31T11:40:30;100791.13;;;28.95
19568;BMP280;9930;49.240;8.548;2023-05-31T11:43:04;100781.72;;;28.88
19568;BMP280;9930;49.240;8.548;2023-05-31T11:45:35;100779.84;;;28.92
19568;BMP280;9930;49.240;8.548;2023-05-31T11:48:24;100780.66;;;28.94
19568;BMP280;9930;49.240;8.548;2023-05-31T11:50:57;100779.66;;;28.98
19568;BMP280;9930;49.240;8.548;2023-05-31T11:53:27;100775.91;;;29.05
19568;BMP280;9930;49.240;8.548;2023-05-31T11:55:53;100771.47;;;29.07
19568;BMP280;9930;49.240;8.548;2023-05-31T11:58:19;100766.13;;;29.10
19568;BMP280;9930;49.240;8.548;2023-05-31T12:00:49;100753.78;;;29.12
19568;BMP280;9930;49.240;8.548;2023-05-31T12:03:16;100755.34;;;29.18
19568;BMP280;9930;49.240;8.548;2023-05-31T12:05:57;100769.19;;;29.23
19568;BMP280;9930;49.240;8.548;2023-05-31T12:08:25;100758.94;;;29.15
19568;BMP280;9930;49.240;8.548;2023-05-31T12:10:51;100758.09;;;29.15
19568;BMP280;9930;49.240;8.548;2023-05-31T12:13:23;100759.63;;;29.20
19568;BMP280;9930;49.240;8.548;2023-05-31T12:15:54;100757.75;;;29.24
19568;BMP280;9930;49.240;8.548;2023-05-31T12:18:23;100750.53;;;29.30
19568;BMP280;9930;49.240;8.548;2023-05-31T12:20:50;100741.75;;;29.31
19568;BMP280;9930;49.240;8.548;2023-05-31T12:23:17;100737.28;;;29.33
19568;BMP280;9930;49.240;8.548;2023-05-31T12:25:50;100735.25;;;29.42
19568;BMP280;9930;49.240;8.548;2023-05-31T12:28:21;100712.72;;;29.34
19568;BMP280;9930;49.240;8.548;2023-05-31T12:30:49;100737.88;;;29.42
19568;BMP280;9930;49.240;8.548;2023-05-31T12:33:23;100740.50;;;29.42
19568;BMP280;9930;49.240;8.548;2023-05-31T12:35:54;100733.47;;;29.44
19568;BMP280;9930;49.240;8.548;2023-05-31T12:38:28;100735.94;;;29.48
19568;BMP280;9930;49.240;8.548;2023-05-31T12:40:56;100728.00;;;29.50
19568;BMP280;9930;49.240;8.548;2023-05-31T12:43:21;100713.19;;;29.47
19568;BMP280;9930;49.240;8.548;2023-05-31T12:45:55;100722.56;;;29.54
19568;BMP280;9930;49.240;8.548;2023-05-31T12:48:25;100744.28;;;29.59
19568;BMP280;9930;49.240;8.548;2023-05-31T12:50:56;100732.75;;;29.63
19568;BMP280;9930;49.240;8.548;2023-05-31T12:53:25;100718.06;;;29.58
19568;BMP280;9930;49.240;8.548;2023-05-31T12:55:50;100723.94;;;29.64
19568;BMP280;9930;49.240;8.548;2023-05-31T12:58:23;100714.25;;;29.67
19568;BMP280;9930;49.240;8.548;2023-05-31T13:00:49;100728.19;;;29.69
19568;BMP280;9930;49.240;8.548;2023-05-31T13:03:16;100732.47;;;29.71
19568;BMP280;9930;49.240;8.548;2023-05-31T13:05:42;100718.41;;;29.72
19568;BMP280;9930;49.240;8.548;2023-05-31T13:08:07;100715.72;;;29.74
19568;BMP280;9930;49.240;8.548;2023-05-31T13:10:37;100711.25;;;29.76
19568;BMP280;9930;49.240;8.548;2023-05-31T13:13:05;100718.19;;;29.78
19568;BMP280;9930;49.240;8.548;2023-05-31T13:15:30;100711.22;;;29.77
19568;BMP280;9930;49.240;8.548;2023-05-31T13:17:56;100716.47;;;29.77
19568;BMP280;9930;49.240;8.548;2023-05-31T13:20:22;100689.53;;;29.71
19568;BMP280;9930;49.240;8.548;2023-05-31T13:22:48;100693.03;;;29.71
19568;BMP280;9930;49.240;8.548;2023-05-31T13:25:14;100686.13;;;29.69
19568;BMP280;9930;49.240;8.548;2023-05-31T13:27:40;100716.69;;;29.71
19568;BMP280;9930;49.240;8.548;2023-05-31T13:30:12;100681.72;;;29.69
19568;BMP280;9930;49.240;8.548;2023-05-31T13:32:38;100682.16;;;29.80
19568;BMP280;9930;49.240;8.548;2023-05-31T13:35:04;100678.44;;;29.86
19568;BMP280;9930;49.240;8.548;2023-05-31T13:37:30;100710.81;;;29.88
19568;BMP280;9930;49.240;8.548;2023-05-31T13:39:56;100683.66;;;29.87
19568;BMP280;9930;49.240;8.548;2023-05-31T13:42:22;100675.66;;;29.90
19568;BMP280;9930;49.240;8.548;2023-05-31T13:44:50;100673.59;;;29.98
19568;BMP280;9930;49.240;8.548;2023-05-31T13:47:20;100664.75;;;30.01
19568;BMP280;9930;49.240;8.548;2023-05-31T13:49:49;100668.13;;;30.05
19568;BMP280;9930;49.240;8.548;2023-05-31T13:52:17;100671.47;;;30.08
19568;BMP280;9930;49.240;8.548;2023-05-31T13:54:49;100678.75;;;30.02
19568;BMP280;9930;49.240;8.548;2023-05-31T13:57:17;100681.66;;;29.94
19568;BMP280;9930;49.240;8.548;2023-05-31T13:59:47;100660.66;;;29.92
19568;BMP280;9930;49.240;8.548;2023-05-31T14:02:16;100682.31;;;29.99
19568;BMP280;9930;49.240;8.548;2023-05-31T14:04:47;100663.81;;;30.02
19568;BMP280;9930;49.240;8.548;2023-05-31T14:07:17;100656.78;;;30.03
19568;BMP280;9930;49.240;8.548;2023-05-31T14:09:42;100658.44;;;30.05
19568;BMP280;9930;49.240;8.548;2023-05-31T14:12:11;100642.84;;;30.01
19568;BMP280;9930;49.240;8.548;2023-05-31T14:14:37;100651.47;;;30.04
19568;BMP280;9930;49.240;8.548;2023-05-31T14:17:03;100655.88;;;30.04
19568;BMP280;9930;49.240;8.548;2023-05-31T14:19:31;100651.63;;;30.00
19568;BMP280;9930;49.240;8.548;2023-05-31T14:21:59;100637.72;;;29.96
19568;BMP280;9930;49.240;8.548;2023-05-31T14:24:24;100638.66;;;29.95
19568;BMP280;9930;49.240;8.548;2023-05-31T14:26:50;100628.06;;;29.96
19568;BMP280;9930;49.240;8.548;2023-05-31T14:29:18;100633.22;;;30.00
19568;BMP280;9930;49.240;8.548;2023-05-31T14:31:49;100633.78;;;30.08